Time;durP1;ratioP1;P1;durP2;ratioP2;P2;SDS_P1;SDS_P2;PMS_P1;PMS_P2;Temp;Humidity;BMP_temperature;BMP_pressure;BME280_temperature;BME280_humidity;BME280_pressure;Samples;Min_cycle;Max_cycle;Signal;HPM_P1;HPM_P2
2023/02/15 00:00:41;;;;;;;;;;;;;;;;;;4990745;28;20611;-63
2023/02/15 00:03:06;;;;;;;;;;;;;;;;;;4979721;28;20288;-63
2023/02/15 00:05:34;;;;;;;;;;;;;;;;;;4978366;28;19921;-63
2023/02/15 00:08:00;;;;;;;;;;;;;;;;;;4974033;28;20288;-63
2023/02/15 00:10:25;;;;;;;;;;;;;;;;;;4991863;28;19921;-63
2023/02/15 00:12:50;;;;;;;;;;;;;;;;;;4979994;28;20140;-63
2023/02/15 00:15:15;;;;;;;;;;;;;;;;;;4982368;28;19921;-63
2023/02/15 00:17:43;;;;;;;;;;;;;;;;;;4963804;28;20254;-63
2023/02/15 00:20:08;;;;;;;;;;;;;;;;;;4961085;28;20283;-63
2023/02/15 00:22:37;;;;;;;;;;;;;;;;;;4979817;28;19928;-63
2023/02/15 00:25:05;;;;;;;;;;;;;;;;;;4964315;28;20623;-63
2023/02/15 00:27:30;;;;;;;;;;;;;;;;;;4975373;28;19928;-63
2023/02/15 00:29:56;;;;;;;;;;;;;;;;;;4977571;28;19921;-63
2023/02/15 00:32:21;;;;;;;;;;;;;;;;;;4963959;28;19924;-63
2023/02/15 00:34:46;;;;;;;;;;;;;;;;;;4971040;28;20361;-63
2023/02/15 00:37:11;;;;;;;;;;;;;;;;;;4971892;28;20167;-63
2023/02/15 00:39:37;;;;;;;;;;;;;;;;;;4970708;28;20483;-63
2023/02/15 00:42:04;;;;;;;;;;;;;;;;;;4977778;28;19990;-63
2023/02/15 00:44:30;;;;;;;;;;;;;;;;;;4977217;28;20084;-63
2023/02/15 00:46:55;;;;;;;;;;;;;;;;;;4970171;28;19934;-63
2023/02/15 00:49:23;;;;;;;;;;;;;;;;;;4964630;28;19925;-63
2023/02/15 00:51:48;;;;;;;;;;;;;;;;;;4956889;28;19945;-63
2023/02/15 00:54:16;;;;;;;;;;;;;;;;;;4974380;28;19924;-63
2023/02/15 00:56:41;;;;;;;;;;;;;;;;;;4976234;28;20032;-63
2023/02/15 00:59:06;;;;;;;;;;;;;;;;;;4978046;28;19930;-63
2023/02/15 01:01:34;;;;;;;;;;;;;;;;;;4953201;28;19995;-63
2023/02/15 01:03:59;;;;;;;;;;;;;;;;;;4978373;28;19917;-63
2023/02/15 01:06:25;;;;;;;;;;;;;;;;;;4977494;28;19922;-63
2023/02/15 01:08:50;;;;;;;;;;;;;;;;;;4960930;28;20379;-63
2023/02/15 01:11:21;;;;;;;;;;;;;;;;;;4963929;28;20009;-64
2023/02/15 01:13:49;;;;;;;;;;;;;;;;;;4978266;28;21660;-63
2023/02/15 01:16:14;;;;;;;;;;;;;;;;;;4975748;28;20007;-64
2023/02/15 01:18:42;;;;;;;;;;;;;;;;;;4976297;28;20765;-64
2023/02/15 01:21:10;;;;;;;;;;;;;;;;;;4971640;28;20143;-62
2023/02/15 01:23:37;;;;;;;;;;;;;;;;;;4977331;28;20467;-62
2023/02/15 01:26:05;;;;;;;;;;;;;;;;;;4963988;28;20012;-63
2023/02/15 01:28:31;;;;;;;;;;;;;;;;;;4979265;28;20699;-63
2023/02/15 01:31:00;;;;;;;;;;;;;;;;;;4977803;28;19917;-63
2023/02/15 01:33:26;;;;;;;;;;;;;;;;;;4979595;28;19933;-63
2023/02/15 01:35:51;;;;;;;;;;;;;;;;;;4977934;28;19920;-63
2023/02/15 01:38:19;;;;;;;;;;;;;;;;;;4976762;28;19980;-63
2023/02/15 01:40:46;;;;;;;;;;;;;;;;;;4978652;28;19925;-63
2023/02/15 01:43:12;;;;;;;;;;;;;;;;;;4955471;28;19922;-62
2023/02/15 01:45:37;;;;;;;;;;;;;;;;;;4982425;28;20455;-62
2023/02/15 01:48:05;;;;;;;;;;;;;;;;;;4966125;28;20748;-62
2023/02/15 01:50:30;;;;;;;;;;;;;;;;;;4967255;28;19918;-61
2023/02/15 01:52:56;;;;;;;;;;;;;;;;;;4981654;28;20290;-62
2023/02/15 01:55:21;;;;;;;;;;;;;;;;;;4980219;28;19921;-62
2023/02/15 01:57:47;;;;;;;;;;;;;;;;;;4974073;28;19921;-62
2023/02/15 02:00:16;;;;;;;;;;;;;;;;;;4981304;28;19968;-61
2023/02/15 02:02:41;;;;;;;;;;;;;;;;;;4977320;28;20196;-62
2023/02/15 02:05:07;;;;;;;;;;;;;;;;;;4976531;28;19996;-62
2023/02/15 02:07:35;;;;;;;;;;;;;;;;;;4980287;28;21117;-61
2023/02/15 02:10:00;;;;;;;;;;;;;;;;;;4981396;28;19921;-62
2023/02/15 02:12:28;;;;;;;;;;;;;;;;;;4978975;28;19928;-61
2023/02/15 02:14:53;;;;;;;;;;;;;;;;;;4980574;28;19917;-62
2023/02/15 02:17:23;;;;;;;;;;;;;;;;;;4979156;28;22070;-61
2023/02/15 02:19:49;;;;;;;;;;;;;;;;;;4959165;28;19921;-61
2023/02/15 02:22:16;;;;;;;;;;;;;;;;;;4958420;28;19965;-61
2023/02/15 02:24:44;;;;;;;;;;;;;;;;;;4957192;28;19924;-61
2023/02/15 02:27:09;;;;;;;;;;;;;;;;;;4981321;28;19917;-61
2023/02/15 02:29:37;;;;;;;;;;;;;;;;;;4980970;28;19922;-61
2023/02/15 02:32:03;;;;;;;;;;;;;;;;;;4964947;28;20573;-61
2023/02/15 02:34:28;;;;;;;;;;;;;;;;;;4965179;28;20178;-61
2023/02/15 02:36:53;;;;;;;;;;;;;;;;;;4961142;28;19917;-62
2023/02/15 02:39:21;;;;;;;;;;;;;;;;;;4977294;28;21548;-62
2023/02/15 02:41:46;;;;;;;;;;;;;;;;;;4980426;28;19922;-62
2023/02/15 02:44:14;;;;;;;;;;;;;;;;;;4979968;28;19917;-62
2023/02/15 02:46:40;;;;;;;;;;;;;;;;;;4978616;28;20339;-62
2023/02/15 02:49:05;;;;;;;;;;;;;;;;;;4959434;28;20636;-61
2023/02/15 02:51:30;;;;;;;;;;;;;;;;;;4979262;28;19918;-61
2023/02/15 02:53:58;;;;;;;;;;;;;;;;;;4979881;28;20243;-61
2023/02/15 02:56:24;;;;;;;;;;;;;;;;;;4977804;28;20583;-62
2023/02/15 02:58:49;;;;;;;;;;;;;;;;;;4979461;28;19932;-61
2023/02/15 03:01:14;;;;;;;;;;;;;;;;;;4979923;28;20562;-61
2023/02/15 03:03:39;;;;;;;;;;;;;;;;;;4956599;28;20380;-61
2023/02/15 03:06:05;;;;;;;;;;;;;;;;;;4964622;28;20060;-61
2023/02/15 03:08:30;;;;;;;;;;;;;;;;;;4977119;28;19921;-60
2023/02/15 03:10:55;;;;;;;;;;;;;;;;;;4957817;28;19944;-60
2023/02/15 03:13:23;;;;;;;;;;;;;;;;;;4994581;28;19922;-62
2023/02/15 03:18:35;;;;;;;;;;;;;;;;;;4978980;28;19957;-62
2023/02/15 03:21:02;;;;;;;;;;;;;;;;;;4965742;28;20020;-62
2023/02/15 03:23:28;;;;;;;;;;;;;;;;;;4955021;28;19929;-62
2023/02/15 03:25:56;;;;;;;;;;;;;;;;;;4982218;28;19917;-61
2023/02/15 03:28:21;;;;;;;;;;;;;;;;;;4979406;28;20116;-61
2023/02/15 03:30:49;;;;;;;;;;;;;;;;;;4976808;28;20545;-62
2023/02/15 03:33:14;;;;;;;;;;;;;;;;;;4977895;28;19921;-62
2023/02/15 03:35:39;;;;;;;;;;;;;;;;;;4978216;28;19921;-62
2023/02/15 03:38:05;;;;;;;;;;;;;;;;;;4976755;28;19930;-62
2023/02/15 03:43:14;;;;;;;;;;;;;;;;;;4978633;28;19917;-61
2023/02/15 03:45:54;;;;;;;;;;;;;;;;;;4963665;28;20050;-61
2023/02/15 03:48:19;;;;;;;;;;;;;;;;;;4977731;28;20657;-60
2023/02/15 03:53:28;;;;;;;;;;;;;;;;;;4979521;28;20272;-60
2023/02/15 03:55:57;;;;;;;;;;;;;;;;;;4957296;28;20203;-60
2023/02/15 04:03:53;;;;;;;;;;;;;;;;;;4979091;28;20573;-60
2023/02/15 04:06:18;;;;;;;;;;;;;;;;;;4978426;28;20072;-60
2023/02/15 04:11:31;;;;;;;;;;;;;;;;;;4978421;28;19924;-61
2023/02/15 04:13:56;;;;;;;;;;;;;;;;;;4976977;28;20357;-60
2023/02/15 04:16:21;;;;;;;;;;;;;;;;;;4978802;28;19922;-60
2023/02/15 04:26:59;;;;;;;;;;;;;;;;;;4979645;28;20362;-61
2023/02/15 04:29:26;;;;;;;;;;;;;;;;;;4955523;28;20020;-61
2023/02/15 04:31:52;;;;;;;;;;;;;;;;;;4959743;28;19922;-61
2023/02/15 04:34:17;;;;;;;;;;;;;;;;;;4962713;28;19921;-60
2023/02/15 04:36:42;;;;;;;;;;;;;;;;;;4977401;28;19926;-61
2023/02/15 04:39:10;;;;;;;;;;;;;;;;;;4962066;28;20029;-61
2023/02/15 04:41:38;;;;;;;;;;;;;;;;;;4979132;28;19921;-61
2023/02/15 04:44:03;;;;;;;;;;;;;;;;;;4986782;28;19917;-61
2023/02/15 04:46:30;;;;;;;;;;;;;;;;;;4976416;28;19966;-61
2023/02/15 04:48:58;;;;;;;;;;;;;;;;;;4979039;28;19983;-61
2023/02/15 04:51:26;;;;;;;;;;;;;;;;;;4976315;28;20479;-61
2023/02/15 04:53:55;;;;;;;;;;;;;;;;;;4975366;28;20921;-60
2023/02/15 04:56:23;;;;;;;;;;;;;;;;;;4950288;28;19924;-61
2023/02/15 04:58:48;;;;;;;;;;;;;;;;;;4976928;28;19921;-60
2023/02/15 05:01:19;;;;;;;;;;;;;;;;;;4972618;28;20204;-61
2023/02/15 05:03:47;;;;;;;;;;;;;;;;;;4978438;28;20023;-60
2023/02/15 05:06:12;;;;;;;;;;;;;;;;;;4990129;28;19921;-61
2023/02/15 05:08:43;;;;;;;;;;;;;;;;;;4955639;28;19921;-60
2023/02/15 05:11:08;;;;;;;;;;;;;;;;;;4976346;28;19921;-60
2023/02/15 05:13:34;;;;;;;;;;;;;;;;;;4972678;28;21605;-60
2023/02/15 05:15:59;;;;;;;;;;;;;;;;;;4963641;28;20236;-61
2023/02/15 05:18:29;;;;;;;;;;;;;;;;;;4973044;28;20415;-60
2023/02/15 05:20:55;;;;;;;;;;;;;;;;;;4975908;28;20420;-60
2023/02/15 05:23:23;;;;;;;;;;;;;;;;;;4974415;28;20464;-60
2023/02/15 05:28:35;;;;;;;;;;;;;;;;;;4980331;28;19921;-60
2023/02/15 05:31:00;;;;;;;;;;;;;;;;;;4980477;28;19921;-60
2023/02/15 05:33:28;;;;;;;;;;;;;;;;;;4980664;28;19924;-60
2023/02/15 05:35:53;;;;;;;;;;;;;;;;;;4972673;28;19967;-60
2023/02/15 05:38:18;;;;;;;;;;;;;;;;;;4954684;28;20384;-60
2023/02/15 05:40:44;;;;;;;;;;;;;;;;;;4981496;28;19921;-61
2023/02/15 05:43:11;;;;;;;;;;;;;;;;;;4963781;28;19922;-60
2023/02/15 05:45:37;;;;;;;;;;;;;;;;;;4975066;28;19970;-60
2023/02/15 05:48:04;;;;;;;;;;;;;;;;;;4981555;28;20246;-59
2023/02/15 05:50:32;;;;;;;;;;;;;;;;;;4978722;28;20369;-61
2023/02/15 05:53:00;;;;;;;;;;;;;;;;;;4978214;28;19922;-61
2023/02/15 05:55:25;;;;;;;;;;;;;;;;;;4971825;28;19922;-60
2023/02/15 05:57:51;;;;;;;;;;;;;;;;;;4978267;28;20082;-60
2023/02/15 06:00:16;;;;;;;;;;;;;;;;;;4980897;28;20352;-59
2023/02/15 06:02:41;;;;;;;;;;;;;;;;;;4978229;28;19919;-61
2023/02/15 06:05:09;;;;;;;;;;;;;;;;;;4953689;28;20023;-59
2023/02/15 06:07:34;;;;;;;;;;;;;;;;;;4973199;28;20662;-60
2023/02/15 06:09:59;;;;;;;;;;;;;;;;;;4979650;28;19976;-60
2023/02/15 06:12:25;;;;;;;;;;;;;;;;;;4979316;28;19922;-60
2023/02/15 06:14:50;;;;;;;;;;;;;;;;;;4973999;28;19917;-60
2023/02/15 06:17:16;;;;;;;;;;;;;;;;;;4979074;28;20000;-61
2023/02/15 06:19:44;;;;;;;;;;;;;;;;;;4954173;28;19926;-61
2023/02/15 06:22:13;;;;;;;;;;;;;;;;;;4979938;28;19932;-61
2023/02/15 06:24:39;;;;;;;;;;;;;;;;;;4978617;28;19918;-60
2023/02/15 06:27:04;;;;;;;;;;;;;;;;;;4981273;28;19932;-60
2023/02/15 06:29:29;;;;;;;;;;;;;;;;;;4980324;28;20522;-60
2023/02/15 06:31:57;;;;;;;;;;;;;;;;;;4993900;28;19921;-61
2023/02/15 06:34:22;;;;;;;;;;;;;;;;;;4983845;28;20620;-60
2023/02/15 06:36:47;;;;;;;;;;;;;;;;;;4978881;28;21025;-61
2023/02/15 06:39:13;;;;;;;;;;;;;;;;;;4983054;28;19925;-61
2023/02/15 06:41:40;;;;;;;;;;;;;;;;;;4985781;28;19976;-61
2023/02/15 06:44:08;;;;;;;;;;;;;;;;;;4975541;28;20403;-61
2023/02/15 06:46:33;;;;;;;;;;;;;;;;;;4983501;28;19996;-61
2023/02/15 06:48:59;;;;;;;;;;;;;;;;;;4966558;28;20039;-60
2023/02/15 06:51:24;;;;;;;;;;;;;;;;;;4982850;28;19918;-60
2023/02/15 06:53:52;;;;;;;;;;;;;;;;;;4982745;28;20028;-61
2023/02/15 06:56:17;;;;;;;;;;;;;;;;;;4962353;28;19957;-61
2023/02/15 06:58:43;;;;;;;;;;;;;;;;;;4982578;28;19929;-60
2023/02/15 07:01:08;;;;;;;;;;;;;;;;;;4982445;28;20048;-60
2023/02/15 07:03:36;;;;;;;;;;;;;;;;;;4981310;28;20213;-60
2023/02/15 07:06:01;;;;;;;;;;;;;;;;;;4984058;28;20307;-60
2023/02/15 07:08:31;;;;;;;;;;;;;;;;;;4981719;28;19957;-60
2023/02/15 07:12:41;;;;;;;;;;;;;;;;;;4981648;28;19917;-61
2023/02/15 07:13:45;;;;;;;;;;;;;;;;;;4983426;28;19921;-61
2023/02/15 07:16:13;;;;;;;;;;;;;;;;;;4981818;28;20419;-60
2023/02/15 07:18:41;;;;;;;;;;;;;;;;;;4983558;28;20323;-60
2023/02/15 07:21:09;;;;;;;;;;;;;;;;;;4982885;28;19929;-61
2023/02/15 07:23:34;;;;;;;;;;;;;;;;;;4956681;28;20016;-61
2023/02/15 07:26:02;;;;;;;;;;;;;;;;;;4977607;28;19929;-60
2023/02/15 07:28:27;;;;;;;;;;;;;;;;;;4974130;28;19922;-61
2023/02/15 07:30:55;;;;;;;;;;;;;;;;;;4979793;28;20033;-61
2023/02/15 07:33:24;;;;;;;;;;;;;;;;;;4979218;28;20382;-61
2023/02/15 07:35:51;;;;;;;;;;;;;;;;;;4982947;28;19921;-61
2023/02/15 07:38:17;;;;;;;;;;;;;;;;;;4958865;28;19925;-60
2023/02/15 07:40:42;;;;;;;;;;;;;;;;;;4980844;28;20383;-61
2023/02/15 07:43:09;;;;;;;;;;;;;;;;;;4980919;28;19964;-61
2023/02/15 07:45:35;;;;;;;;;;;;;;;;;;4962649;28;19922;-61
2023/02/15 07:48:00;;;;;;;;;;;;;;;;;;4981676;28;20434;-61
2023/02/15 07:50:25;;;;;;;;;;;;;;;;;;4981963;28;20527;-61
2023/02/15 07:52:51;;;;;;;;;;;;;;;;;;4979635;28;19921;-61
2023/02/15 07:55:19;;;;;;;;;;;;;;;;;;4982376;28;20187;-60
2023/02/15 07:57:44;;;;;;;;;;;;;;;;;;4979217;28;20376;-60
2023/02/15 08:00:09;;;;;;;;;;;;;;;;;;4981890;28;19952;-61
2023/02/15 08:02:38;;;;;;;;;;;;;;;;;;4981939;28;21491;-60
2023/02/15 08:05:03;;;;;;;;;;;;;;;;;;4957005;28;19918;-58
2023/02/15 08:07:28;;;;;;;;;;;;;;;;;;4982973;28;19950;-61
2023/02/15 08:09:56;;;;;;;;;;;;;;;;;;4978966;28;20059;-61
2023/02/15 08:12:24;;;;;;;;;;;;;;;;;;4980761;28;19917;-58
2023/02/15 08:14:55;;;;;;;;;;;;;;;;;;4981148;28;20081;-60
2023/02/15 08:17:23;;;;;;;;;;;;;;;;;;4981468;28;21711;-60
2023/02/15 08:19:48;;;;;;;;;;;;;;;;;;4977229;28;20508;-58
2023/02/15 08:22:14;;;;;;;;;;;;;;;;;;4981553;28;20059;-59
2023/02/15 08:24:41;;;;;;;;;;;;;;;;;;4980580;28;19928;-58
2023/02/15 08:27:06;;;;;;;;;;;;;;;;;;4977816;28;20310;-61
2023/02/15 08:29:32;;;;;;;;;;;;;;;;;;4981578;28;19921;-60
2023/02/15 08:32:01;;;;;;;;;;;;;;;;;;4973636;28;19928;-60
2023/02/15 08:34:26;;;;;;;;;;;;;;;;;;4975053;28;19917;-60
2023/02/15 08:36:52;;;;;;;;;;;;;;;;;;4982944;28;19928;-60
2023/02/15 08:39:17;;;;;;;;;;;;;;;;;;4980542;28;20399;-60
2023/02/15 08:41:48;;;;;;;;;;;;;;;;;;4957763;28;19991;-60
2023/02/15 08:44:13;;;;;;;;;;;;;;;;;;4979314;28;20435;-60
2023/02/15 08:46:38;;;;;;;;;;;;;;;;;;4977365;28;19922;-60
2023/02/15 08:49:03;;;;;;;;;;;;;;;;;;4981208;28;20084;-61
2023/02/15 08:51:31;;;;;;;;;;;;;;;;;;4956774;28;19993;-61
2023/02/15 08:53:59;;;;;;;;;;;;;;;;;;4981966;28;19921;-60
2023/02/15 08:56:29;;;;;;;;;;;;;;;;;;4982064;28;19918;-61
2023/02/15 08:58:55;;;;;;;;;;;;;;;;;;4980103;28;20695;-60
2023/02/15 09:01:20;;;;;;;;;;;;;;;;;;4957816;28;19918;-59
2023/02/15 09:03:49;;;;;;;;;;;;;;;;;;4980422;28;19971;-60
2023/02/15 09:06:16;;;;;;;;;;;;;;;;;;4972923;28;20284;-60
2023/02/15 09:08:44;;;;;;;;;;;;;;;;;;4979684;28;20040;-59
2023/02/15 09:11:12;;;;;;;;;;;;;;;;;;4981859;28;19937;-60
2023/02/15 09:13:40;;;;;;;;;;;;;;;;;;4981480;28;19917;-60
2023/02/15 09:16:08;;;;;;;;;;;;;;;;;;4964998;28;19917;-59
2023/02/15 09:18:37;;;;;;;;;;;;;;;;;;4979403;28;19972;-60
2023/02/15 09:21:02;;;;;;;;;;;;;;;;;;4980573;28;19921;-61
2023/02/15 09:23:30;;;;;;;;;;;;;;;;;;4977595;28;19925;-60
2023/02/15 09:25:58;;;;;;;;;;;;;;;;;;4979732;28;19925;-61
2023/02/15 09:28:23;;;;;;;;;;;;;;;;;;4961981;28;20397;-61
2023/02/15 09:30:52;;;;;;;;;;;;;;;;;;4956150;28;19922;-60
2023/02/15 09:33:20;;;;;;;;;;;;;;;;;;4966080;28;19970;-60
2023/02/15 09:35:45;;;;;;;;;;;;;;;;;;4955258;28;20067;-61
2023/02/15 09:38:14;;;;;;;;;;;;;;;;;;4979154;28;19918;-61
2023/02/15 09:40:40;;;;;;;;;;;;;;;;;;4959149;28;19976;-61
2023/02/15 09:43:05;;;;;;;;;;;;;;;;;;4979758;28;20047;-61
2023/02/15 09:45:31;;;;;;;;;;;;;;;;;;4978134;28;19918;-61
2023/02/15 09:47:59;;;;;;;;;;;;;;;;;;4979654;28;20420;-62
2023/02/15 09:50:28;;;;;;;;;;;;;;;;;;4980164;28;19917;-61
2023/02/15 09:52:54;;;;;;;;;;;;;;;;;;4981229;28;20448;-61
2023/02/15 09:55:21;;;;;;;;;;;;;;;;;;4977794;28;20370;-63
2023/02/15 09:57:47;;;;;;;;;;;;;;;;;;4979136;28;20865;-62
2023/02/15 10:00:12;;;;;;;;;;;;;;;;;;4990490;28;19921;-62
2023/02/15 10:02:37;;;;;;;;;;;;;;;;;;4978379;28;19918;-62
2023/02/15 10:05:05;;;;;;;;;;;;;;;;;;4980381;28;19918;-62
2023/02/15 10:07:30;;;;;;;;;;;;;;;;;;4983053;28;19913;-63
2023/02/15 10:09:58;;;;;;;;;;;;;;;;;;4983023;28;19983;-63
2023/02/15 10:12:24;;;;;;;;;;;;;;;;;;4982062;28;20320;-63
2023/02/15 10:14:49;;;;;;;;;;;;;;;;;;4982961;28;19922;-63
2023/02/15 10:17:14;;;;;;;;;;;;;;;;;;4982829;28;19921;-63
2023/02/15 10:19:42;;;;;;;;;;;;;;;;;;4984689;28;20329;-63
2023/02/15 10:22:10;;;;;;;;;;;;;;;;;;4976159;28;20036;-63
2023/02/15 10:24:41;;;;;;;;;;;;;;;;;;4959685;28;19928;-64
2023/02/15 10:27:09;;;;;;;;;;;;;;;;;;4984535;28;20001;-63
2023/02/15 10:29:37;;;;;;;;;;;;;;;;;;4980821;28;19983;-62
2023/02/15 10:32:05;;;;;;;;;;;;;;;;;;4978804;28;21777;-63
2023/02/15 10:34:33;;;;;;;;;;;;;;;;;;4979995;28;20773;-63
2023/02/15 10:37:00;;;;;;;;;;;;;;;;;;4982765;28;19918;-63
2023/02/15 10:39:29;;;;;;;;;;;;;;;;;;4964933;28;19929;-63
2023/02/15 10:41:54;;;;;;;;;;;;;;;;;;4959289;28;19967;-63
2023/02/15 10:44:22;;;;;;;;;;;;;;;;;;4982406;28;19917;-64
2023/02/15 10:46:53;;;;;;;;;;;;;;;;;;4959384;28;20207;-63
2023/02/15 10:49:20;;;;;;;;;;;;;;;;;;4980896;28;20035;-63
2023/02/15 10:51:46;;;;;;;;;;;;;;;;;;4984554;28;20113;-64
2023/02/15 10:54:11;;;;;;;;;;;;;;;;;;4982413;28;19921;-64
2023/02/15 10:56:39;;;;;;;;;;;;;;;;;;4983271;28;20495;-63
2023/02/15 10:59:04;;;;;;;;;;;;;;;;;;4968371;28;19932;-63
2023/02/15 11:01:30;;;;;;;;;;;;;;;;;;4984764;28;19957;-64
2023/02/15 11:03:58;;;;;;;;;;;;;;;;;;4983747;28;19917;-63
2023/02/15 11:06:23;;;;;;;;;;;;;;;;;;4979287;28;20421;-63
2023/02/15 11:08:48;;;;;;;;;;;;;;;;;;4981445;28;19927;-63
2023/02/15 11:11:13;;;;;;;;;;;;;;;;;;4957665;28;20408;-64
2023/02/15 11:13:39;;;;;;;;;;;;;;;;;;4983633;28;20155;-63
2023/02/15 11:16:04;;;;;;;;;;;;;;;;;;4974792;28;19928;-64
2023/02/15 11:18:29;;;;;;;;;;;;;;;;;;4979955;28;19929;-64
2023/02/15 11:20:54;;;;;;;;;;;;;;;;;;4980581;28;19921;-64
2023/02/15 11:23:19;;;;;;;;;;;;;;;;;;4983674;28;20266;-65
2023/02/15 11:25:47;;;;;;;;;;;;;;;;;;4967139;28;19921;-64
2023/02/15 11:28:15;;;;;;;;;;;;;;;;;;4964452;28;19949;-63
2023/02/15 11:30:46;;;;;;;;;;;;;;;;;;4981688;28;19928;-64
2023/02/15 11:33:14;;;;;;;;;;;;;;;;;;4980901;28;20369;-64
2023/02/15 11:35:40;;;;;;;;;;;;;;;;;;4980382;28;19917;-65
2023/02/15 11:38:10;;;;;;;;;;;;;;;;;;4975961;28;19925;-64
2023/02/15 11:40:41;;;;;;;;;;;;;;;;;;4981891;28;20430;-64
2023/02/15 11:43:08;;;;;;;;;;;;;;;;;;4983794;28;19917;-64
2023/02/15 11:45:38;;;;;;;;;;;;;;;;;;4982787;28;19928;-64
2023/02/15 11:48:05;;;;;;;;;;;;;;;;;;4983150;28;20009;-63
2023/02/15 11:50:31;;;;;;;;;;;;;;;;;;4974891;28;19992;-64
2023/02/15 11:52:56;;;;;;;;;;;;;;;;;;4979721;28;19928;-65
2023/02/15 11:55:21;;;;;;;;;;;;;;;;;;4977175;28;20025;-64
2023/02/15 11:57:46;;;;;;;;;;;;;;;;;;4982870;28;19957;-65
2023/02/15 12:00:14;;;;;;;;;;;;;;;;;;4981507;28;21407;-64
2023/02/15 12:02:42;;;;;;;;;;;;;;;;;;4958152;28;19938;-64
2023/02/15 12:05:08;;;;;;;;;;;;;;;;;;4967764;28;20201;-64
2023/02/15 12:07:33;;;;;;;;;;;;;;;;;;4960373;28;19949;-64
2023/02/15 12:09:58;;;;;;;;;;;;;;;;;;4981468;28;19927;-64
2023/02/15 12:12:26;;;;;;;;;;;;;;;;;;4979584;28;20114;-64
2023/02/15 12:14:54;;;;;;;;;;;;;;;;;;4974790;28;19968;-64
2023/02/15 12:17:20;;;;;;;;;;;;;;;;;;4980011;28;20110;-64
2023/02/15 12:19:50;;;;;;;;;;;;;;;;;;4957720;28;19936;-64
2023/02/15 12:22:15;;;;;;;;;;;;;;;;;;4982936;28;20044;-65
2023/02/15 12:24:40;;;;;;;;;;;;;;;;;;4980210;28;19991;-64
2023/02/15 12:27:08;;;;;;;;;;;;;;;;;;4979436;28;20012;-65
2023/02/15 12:29:33;;;;;;;;;;;;;;;;;;4982177;28;19932;-64
2023/02/15 12:31:59;;;;;;;;;;;;;;;;;;4977466;28;19964;-63
2023/02/15 12:34:24;;;;;;;;;;;;;;;;;;4979367;28;20407;-64
2023/02/15 12:36:57;;;;;;;;;;;;;;;;;;4957409;28;19922;-64
2023/02/15 12:39:27;;;;;;;;;;;;;;;;;;4965063;28;19921;-64
2023/02/15 12:41:55;;;;;;;;;;;;;;;;;;4980768;28;19960;-64
2023/02/15 12:44:26;;;;;;;;;;;;;;;;;;4966080;28;19922;-64
2023/02/15 12:46:51;;;;;;;;;;;;;;;;;;4980746;28;19922;-65
2023/02/15 12:49:19;;;;;;;;;;;;;;;;;;4979671;28;19953;-64
2023/02/15 12:51:44;;;;;;;;;;;;;;;;;;4981290;28;20061;-65
2023/02/15 12:54:10;;;;;;;;;;;;;;;;;;4965486;28;20550;-64
2023/02/15 12:56:38;;;;;;;;;;;;;;;;;;4979437;28;19929;-64
2023/02/15 12:59:03;;;;;;;;;;;;;;;;;;4978307;28;19955;-64
2023/02/15 13:01:31;;;;;;;;;;;;;;;;;;4973793;28;19921;-64
2023/02/15 13:03:59;;;;;;;;;;;;;;;;;;4956077;28;19922;-63
2023/02/15 13:06:27;;;;;;;;;;;;;;;;;;4982768;28;20375;-64
2023/02/15 13:08:52;;;;;;;;;;;;;;;;;;4965715;28;19926;-64
2023/02/15 13:11:17;;;;;;;;;;;;;;;;;;4972619;28;19949;-65
2023/02/15 13:13:45;;;;;;;;;;;;;;;;;;4979139;28;19986;-64
2023/02/15 13:16:13;;;;;;;;;;;;;;;;;;4979934;28;20608;-65
2023/02/15 13:18:38;;;;;;;;;;;;;;;;;;4981458;28;20057;-64
2023/02/15 13:21:03;;;;;;;;;;;;;;;;;;4978208;28;19948;-64
2023/02/15 13:23:29;;;;;;;;;;;;;;;;;;4993205;28;19925;-65
2023/02/15 13:25:56;;;;;;;;;;;;;;;;;;4994576;28;20372;-65
2023/02/15 13:28:25;;;;;;;;;;;;;;;;;;4979038;28;19925;-65
2023/02/15 13:30:52;;;;;;;;;;;;;;;;;;4981618;28;19922;-65
2023/02/15 13:33:18;;;;;;;;;;;;;;;;;;4955476;28;19956;-65
2023/02/15 13:35:43;;;;;;;;;;;;;;;;;;4972828;28;20043;-65
2023/02/15 13:38:11;;;;;;;;;;;;;;;;;;4977822;28;20449;-65
2023/02/15 13:40:36;;;;;;;;;;;;;;;;;;4981878;28;20066;-68
2023/02/15 13:43:04;;;;;;;;;;;;;;;;;;4969223;28;19922;-64
2023/02/15 13:45:33;;;;;;;;;;;;;;;;;;4961190;28;20614;-64
2023/02/15 13:47:58;;;;;;;;;;;;;;;;;;4984643;28;20099;-64
2023/02/15 13:50:24;;;;;;;;;;;;;;;;;;4984513;28;19921;-65
2023/02/15 13:52:54;;;;;;;;;;;;;;;;;;4977697;28;19921;-64
2023/02/15 13:55:20;;;;;;;;;;;;;;;;;;4985168;28;19921;-64
2023/02/15 13:57:47;;;;;;;;;;;;;;;;;;4986054;28;19968;-64
2023/02/15 14:00:13;;;;;;;;;;;;;;;;;;4966964;28;20679;-64
2023/02/15 14:02:41;;;;;;;;;;;;;;;;;;4960569;28;19918;-64
2023/02/15 14:05:12;;;;;;;;;;;;;;;;;;4960114;28;19941;-64
2023/02/15 14:07:40;;;;;;;;;;;;;;;;;;4983356;28;19926;-64
2023/02/15 14:10:05;;;;;;;;;;;;;;;;;;4958562;28;19922;-64
2023/02/15 14:12:31;;;;;;;;;;;;;;;;;;4982421;28;20377;-67
2023/02/15 14:14:58;;;;;;;;;;;;;;;;;;4983239;28;19952;-64
2023/02/15 14:17:24;;;;;;;;;;;;;;;;;;4983434;28;19968;-64
2023/02/15 14:19:52;;;;;;;;;;;;;;;;;;4983737;28;20533;-64
2023/02/15 14:22:17;;;;;;;;;;;;;;;;;;4982308;28;20016;-64
2023/02/15 14:24:44;;;;;;;;;;;;;;;;;;4982257;28;19917;-64
2023/02/15 14:27:12;;;;;;;;;;;;;;;;;;4975564;28;19930;-64
2023/02/15 14:29:37;;;;;;;;;;;;;;;;;;4983041;28;19944;-64
2023/02/15 14:32:02;;;;;;;;;;;;;;;;;;4981773;28;19921;-64
2023/02/15 14:34:27;;;;;;;;;;;;;;;;;;4980048;28;20621;-64
2023/02/15 14:36:53;;;;;;;;;;;;;;;;;;4982022;28;19921;-64
2023/02/15 14:42:02;;;;;;;;;;;;;;;;;;4983244;28;19921;-64
2023/02/15 14:44:27;;;;;;;;;;;;;;;;;;4958643;28;19925;-64
2023/02/15 14:46:53;;;;;;;;;;;;;;;;;;4984151;28;20953;-65
2023/02/15 14:49:18;;;;;;;;;;;;;;;;;;4959534;28;19922;-65
2023/02/15 14:51:46;;;;;;;;;;;;;;;;;;4980275;28;19917;-65
2023/02/15 14:54:11;;;;;;;;;;;;;;;;;;4981488;28;20088;-65
2023/02/15 14:56:39;;;;;;;;;;;;;;;;;;4981968;28;19933;-64
2023/02/15 14:59:04;;;;;;;;;;;;;;;;;;4961281;28;20324;-65
2023/02/15 15:01:29;;;;;;;;;;;;;;;;;;4984101;28;19921;-65
2023/02/15 15:03:56;;;;;;;;;;;;;;;;;;4975630;28;19918;-65
2023/02/15 15:06:24;;;;;;;;;;;;;;;;;;4983328;28;20293;-65
2023/02/15 15:08:51;;;;;;;;;;;;;;;;;;4983223;28;19922;-65
2023/02/15 15:11:26;;;;;;;;;;;;;;;;;;4983559;28;19929;-66
2023/02/15 15:13:51;;;;;;;;;;;;;;;;;;4967518;28;20388;-64
2023/02/15 15:16:17;;;;;;;;;;;;;;;;;;4957010;28;19940;-64
2023/02/15 15:18:44;;;;;;;;;;;;;;;;;;4984199;28;20123;-65
2023/02/15 15:21:13;;;;;;;;;;;;;;;;;;4990029;28;19947;-64
2023/02/15 15:23:40;;;;;;;;;;;;;;;;;;4979929;28;20448;-63
2023/02/15 15:26:08;;;;;;;;;;;;;;;;;;4981284;28;19918;-63
2023/02/15 15:28:36;;;;;;;;;;;;;;;;;;4961182;28;20040;-65
2023/02/15 15:31:04;;;;;;;;;;;;;;;;;;4961408;28;19917;-64
2023/02/15 15:33:30;;;;;;;;;;;;;;;;;;4980524;28;19917;-65
2023/02/15 15:35:57;;;;;;;;;;;;;;;;;;4995014;28;20730;-65
2023/02/15 15:38:28;;;;;;;;;;;;;;;;;;4975322;28;20007;-65
2023/02/15 15:40:53;;;;;;;;;;;;;;;;;;4981917;28;20484;-65
2023/02/15 15:43:27;;;;;;;;;;;;;;;;;;4979850;28;19980;-65
2023/02/15 15:45:55;;;;;;;;;;;;;;;;;;4979790;28;19928;-65
2023/02/15 15:48:20;;;;;;;;;;;;;;;;;;4979746;28;19929;-64
2023/02/15 15:50:50;;;;;;;;;;;;;;;;;;4981194;28;19952;-65
2023/02/15 15:53:16;;;;;;;;;;;;;;;;;;4983284;28;19921;-65
2023/02/15 15:55:43;;;;;;;;;;;;;;;;;;4974771;28;20808;-64
2023/02/15 15:58:11;;;;;;;;;;;;;;;;;;4991417;28;20084;-65
2023/02/15 16:00:39;;;;;;;;;;;;;;;;;;4981304;28;20160;-64
2023/02/15 16:03:06;;;;;;;;;;;;;;;;;;4966142;28;19963;-64
2023/02/15 16:05:37;;;;;;;;;;;;;;;;;;4978036;28;19975;-64
2023/02/15 16:08:05;;;;;;;;;;;;;;;;;;4978579;28;19959;-65
2023/02/15 16:10:32;;;;;;;;;;;;;;;;;;4977826;28;20000;-64
2023/02/15 16:13:00;;;;;;;;;;;;;;;;;;4982779;28;19949;-64
2023/02/15 16:15:25;;;;;;;;;;;;;;;;;;4953798;28;20129;-64
2023/02/15 16:17:54;;;;;;;;;;;;;;;;;;4982117;28;19921;-64
2023/02/15 16:20:19;;;;;;;;;;;;;;;;;;4974181;28;19934;-64
2023/02/15 16:22:45;;;;;;;;;;;;;;;;;;4978758;28;19921;-64
2023/02/15 16:25:10;;;;;;;;;;;;;;;;;;4957295;28;19921;-65
2023/02/15 16:27:35;;;;;;;;;;;;;;;;;;4979100;28;19922;-63
2023/02/15 16:30:03;;;;;;;;;;;;;;;;;;4980105;28;19929;-65
2023/02/15 16:32:35;;;;;;;;;;;;;;;;;;4975636;28;19922;-65
2023/02/15 16:35:03;;;;;;;;;;;;;;;;;;4975431;28;20755;-64
2023/02/15 16:37:28;;;;;;;;;;;;;;;;;;4981496;28;20808;-63
2023/02/15 16:39:54;;;;;;;;;;;;;;;;;;4976965;28;19956;-65
2023/02/15 16:42:19;;;;;;;;;;;;;;;;;;4974212;28;19921;-63
2023/02/15 16:44:44;;;;;;;;;;;;;;;;;;4954526;28;19921;-63
2023/02/15 16:47:09;;;;;;;;;;;;;;;;;;4981075;28;19921;-63
2023/02/15 16:49:39;;;;;;;;;;;;;;;;;;4957579;28;21449;-65
2023/02/15 16:52:05;;;;;;;;;;;;;;;;;;4995702;28;20331;-63
2023/02/15 16:54:33;;;;;;;;;;;;;;;;;;4981378;28;19925;-64
2023/02/15 16:56:58;;;;;;;;;;;;;;;;;;4954620;28;19921;-64
2023/02/15 16:59:26;;;;;;;;;;;;;;;;;;4979034;28;19972;-64
2023/02/15 17:01:57;;;;;;;;;;;;;;;;;;4957020;28;20272;-65
2023/02/15 17:04:25;;;;;;;;;;;;;;;;;;4961473;28;20121;-64
2023/02/15 17:06:50;;;;;;;;;;;;;;;;;;4971360;28;20636;-64
2023/02/15 17:09:18;;;;;;;;;;;;;;;;;;4979736;28;19936;-65
2023/02/15 17:11:43;;;;;;;;;;;;;;;;;;4971870;28;19918;-64